createdAt,value
2023-05-11T00:02:20.732Z,159088.38
2023-05-11T00:04:49.022Z,159065.72
2023-05-11T00:07:16.788Z,159047.03
2023-05-11T00:09:44.801Z,159027.03
2023-05-11T00:12:13.645Z,159000.34
2023-05-11T00:14:41.669Z,158957.69
2023-05-11T00:17:09.304Z,158919.03
2023-05-11T00:19:37.020Z,158868.41
2023-05-11T00:22:04.804Z,158841.72
2023-05-11T00:24:32.369Z,158801.72
2023-05-11T00:27:00.072Z,158776.41
2023-05-11T00:29:27.774Z,158748.41
2023-05-11T00:31:55.597Z,158697.75
2023-05-11T00:34:24.163Z,158689.75
2023-05-11T00:36:55.797Z,158668.44
2023-05-11T00:39:24.887Z,158663.16
2023-05-11T00:41:52.698Z,158659.13
2023-05-11T00:44:20.554Z,158635.19
2023-05-11T00:46:49.195Z,158624.50
2023-05-11T00:49:17.748Z,158616.50
2023-05-11T00:51:45.634Z,158601.84
2023-05-11T00:54:16.102Z,158584.50
2023-05-11T00:56:43.838Z,158556.53
2023-05-11T00:59:13.576Z,158504.63
2023-05-11T01:01:41.601Z,158482.00
2023-05-11T01:04:09.920Z,158446.06
2023-05-11T01:06:46.784Z,158423.38
2023-05-11T01:10:06.258Z,158390.16
2023-05-11T01:13:13.595Z,158348.88
2023-05-11T01:15:45.110Z,158311.63
2023-05-11T01:18:29.600Z,158282.31
2023-05-11T01:21:02.061Z,158259.69
2023-05-11T01:23:49.484Z,158254.34
2023-05-11T01:26:46.674Z,158238.41
2023-05-11T01:29:53.047Z,158217.13
2023-05-11T01:32:24.375Z,158191.81
2023-05-11T01:35:06.810Z,158166.56
2023-05-11T01:37:36.242Z,158146.59
2023-05-11T01:40:07.280Z,158117.31
2023-05-11T01:42:55.434Z,158119.94
2023-05-11T01:45:24.196Z,158086.69
2023-05-11T01:47:53.748Z,158082.72
2023-05-11T01:50:23.478Z,158077.38
2023-05-11T01:52:52.141Z,158094.69
2023-05-11T01:55:22.018Z,158089.38
2023-05-11T01:57:53.290Z,158086.69
2023-05-11T02:00:21.343Z,158078.69
2023-05-11T02:02:49.997Z,158053.47
2023-05-11T02:05:22.631Z,158034.81
2023-05-11T02:07:52.869Z,158026.84
2023-05-11T02:10:21.668Z,158008.22
2023-05-11T02:12:52.336Z,157988.28
2023-05-11T02:15:22.930Z,157985.63
2023-05-11T02:17:51.657Z,157975.00
2023-05-11T02:20:20.754Z,157953.75
2023-05-11T02:22:49.219Z,157940.44
2023-05-11T02:25:17.583Z,157936.44
2023-05-11T02:27:45.346Z,157935.13
2023-05-11T02:30:13.952Z,157923.13
2023-05-11T02:32:48.534Z,157925.81
2023-05-11T02:35:37.843Z,157919.19
2023-05-11T02:38:06.424Z,157933.78
2023-05-11T02:40:41.200Z,157911.16
2023-05-11T02:43:11.765Z,157924.44
2023-05-11T02:45:45.738Z,157932.47
2023-05-11T02:48:22.138Z,157949.75
2023-05-11T02:50:51.821Z,157953.75
2023-05-11T02:53:20.656Z,157941.75
2023-05-11T02:55:49.071Z,157952.38
2023-05-11T02:58:17.853Z,157952.38
2023-05-11T03:00:51.296Z,157956.38
2023-05-11T03:03:19.354Z,157956.38
2023-05-11T03:05:47.042Z,157957.69
2023-05-11T03:08:15.216Z,157953.75
2023-05-11T03:10:43.682Z,157969.69
2023-05-11T03:13:11.826Z,157968.38
2023-05-11T03:15:41.428Z,157975.00
2023-05-11T03:18:09.537Z,157967.00
2023-05-11T03:20:39.198Z,157961.72
2023-05-11T03:23:07.642Z,157956.38
2023-05-11T03:25:36.058Z,157951.06
2023-05-11T03:28:04.889Z,157943.09
2023-05-11T03:30:34.782Z,157936.44
2023-05-11T03:33:03.226Z,157913.84
2023-05-11T03:35:34.211Z,157921.81
2023-05-11T03:38:03.444Z,157928.47
2023-05-11T03:40:33.436Z,157947.09
2023-05-11T03:43:03.793Z,157968.38
2023-05-11T03:45:32.527Z,157975.00
2023-05-11T03:48:06.334Z,157988.28
2023-05-11T03:50:34.260Z,158010.91
2023-05-11T03:53:02.844Z,158028.19
2023-05-11T03:55:30.497Z,158060.13
2023-05-11T03:57:58.665Z,158073.41
2023-05-11T04:00:26.393Z,158101.34
2023-05-11T04:02:55.356Z,158130.59
2023-05-11T04:05:22.974Z,158150.63
2023-05-11T04:07:51.830Z,158182.53
2023-05-11T04:10:19.517Z,158218.44
2023-05-11T04:12:47.920Z,158259.69
2023-05-11T04:15:16.101Z,158304.97
2023-05-11T04:17:43.838Z,158348.88
2023-05-11T04:20:12.213Z,158383.50
2023-05-11T04:22:40.063Z,158411.44
2023-05-11T04:25:08.359Z,158451.34
2023-05-11T04:27:36.173Z,158488.66
2023-05-11T04:30:06.440Z,158512.63
2023-05-11T04:32:35.583Z,158553.91
2023-05-11T04:35:03.554Z,158576.53
2023-05-11T04:37:35.963Z,158620.47
2023-05-11T04:40:07.579Z,158649.81
2023-05-11T04:42:40.610Z,158688.44
2023-05-11T04:45:13.645Z,158741.75
2023-05-11T04:47:41.909Z,158792.41
2023-05-11T04:50:11.364Z,158824.38
2023-05-11T04:52:39.929Z,158848.41
2023-05-11T04:55:07.953Z,158916.41
2023-05-11T04:57:36.412Z,158968.38
2023-05-11T05:00:07.275Z,159036.41
2023-05-11T05:02:35.980Z,159077.69
2023-05-11T05:05:04.299Z,159128.41
2023-05-11T05:07:32.423Z,159189.75
2023-05-11T05:09:59.959Z,159259.13
2023-05-11T05:12:28.044Z,159343.25
2023-05-11T05:14:55.721Z,159415.31
2023-05-11T05:17:23.706Z,159464.72
2023-05-11T05:19:51.416Z,159523.50
2023-05-11T05:22:19.566Z,159584.88
2023-05-11T05:24:47.205Z,159622.31
2023-05-11T05:27:15.661Z,159628.97
2023-05-11T05:29:43.650Z,159624.94
2023-05-11T05:32:12.073Z,159651.69
2023-05-11T05:34:40.124Z,159745.22
2023-05-11T05:37:09.403Z,159786.66
2023-05-11T05:39:37.115Z,159785.31
2023-05-11T05:42:05.055Z,159833.44
2023-05-11T05:44:33.300Z,159886.84
2023-05-11T05:47:01.353Z,159944.31
2023-05-11T05:49:32.241Z,160015.16
2023-05-11T05:52:01.049Z,160056.69
2023-05-11T05:54:30.295Z,160054.03
2023-05-11T05:56:59.122Z,160051.38
2023-05-11T05:59:27.098Z,160066.06
2023-05-11T06:01:58.325Z,160131.56
2023-05-11T06:04:26.254Z,160186.41
2023-05-11T06:06:58.488Z,160237.25
2023-05-11T06:09:27.055Z,160317.50
2023-05-11T06:11:55.548Z,160357.66
2023-05-11T06:14:25.402Z,160376.41
2023-05-11T06:16:53.893Z,160377.72
2023-05-11T06:19:22.675Z,160417.88
2023-05-11T06:21:51.572Z,160419.25
2023-05-11T06:24:20.061Z,160454.06
2023-05-11T06:26:48.717Z,160471.44
2023-05-11T06:29:19.162Z,160463.41
2023-05-11T06:31:49.648Z,160551.72
2023-05-11T06:34:17.329Z,160602.66
2023-05-11T06:36:45.461Z,160629.38
2023-05-11T06:39:13.662Z,160641.44
2023-05-11T06:41:42.612Z,160662.88
2023-05-11T06:44:10.505Z,160715.19
2023-05-11T06:46:39.777Z,160796.84
2023-05-11T06:49:09.113Z,160807.59
2023-05-11T06:51:38.806Z,160729.91
2023-05-11T06:54:07.400Z,160767.41
2023-05-11T06:56:37.974Z,160812.91
2023-05-11T06:59:05.979Z,160850.44
2023-05-11T07:01:34.333Z,160842.44
2023-05-11T07:04:03.026Z,160770.06
2023-05-11T07:06:33.996Z,160752.66
2023-05-11T07:09:03.590Z,160882.59
2023-05-11T07:11:32.000Z,160869.19
2023-05-11T07:13:59.807Z,160885.28
2023-05-11T07:16:28.579Z,160913.44
2023-05-11T07:18:56.393Z,160900.03
2023-05-11T07:21:24.875Z,160859.81
2023-05-11T07:23:52.737Z,160841.03
2023-05-11T07:26:24.009Z,160794.19
2023-05-11T07:28:52.002Z,160783.44
2023-05-11T07:31:20.685Z,160782.13
2023-05-11T07:33:48.954Z,160784.78
2023-05-11T07:36:17.347Z,160766.06
2023-05-11T07:38:45.302Z,160866.50
2023-05-11T07:41:13.524Z,160843.75
2023-05-11T07:43:42.264Z,160827.66
2023-05-11T07:46:10.989Z,160874.53
2023-05-11T07:48:39.585Z,160920.13
2023-05-11T07:51:08.408Z,160952.25
2023-05-11T07:53:36.821Z,160961.63
2023-05-11T07:56:06.658Z,160946.88
2023-05-11T07:58:34.745Z,160969.75
2023-05-11T08:01:03.317Z,161043.44
2023-05-11T08:03:31.174Z,161089.00
2023-05-11T08:05:59.822Z,161097.09
2023-05-11T08:08:27.761Z,161158.72
2023-05-11T08:10:56.171Z,161086.34
2023-05-11T08:13:25.865Z,160993.88
2023-05-11T08:15:54.517Z,160967.00
2023-05-11T08:18:24.556Z,160892.00
2023-05-11T08:20:53.018Z,160922.78
2023-05-11T08:23:21.389Z,160999.22
2023-05-11T08:25:55.096Z,161085.00
2023-05-11T08:28:23.640Z,161130.56
2023-05-11T08:30:59.298Z,161161.41
2023-05-11T08:35:59.591Z,161091.72
2023-05-11T08:38:27.435Z,161063.56
2023-05-11T08:40:55.876Z,161060.84
2023-05-11T08:43:24.740Z,161043.44
2023-05-11T08:45:58.174Z,161055.53
2023-05-11T08:48:26.954Z,161068.94
2023-05-11T08:50:55.480Z,161000.56
2023-05-11T08:53:24.176Z,160957.63
2023-05-11T08:55:52.705Z,161012.63
2023-05-11T08:58:22.803Z,161024.66
2023-05-11T09:00:52.567Z,160995.19
2023-05-11T09:03:21.466Z,160940.19
2023-05-11T09:05:50.383Z,161001.91
2023-05-11T09:08:18.892Z,161019.34
2023-05-11T09:10:46.937Z,160973.75
2023-05-11T09:13:14.664Z,160975.09
2023-05-11T09:15:42.842Z,160908.06
2023-05-11T09:18:10.748Z,160879.91
2023-05-11T09:20:44.209Z,160965.66
2023-05-11T09:23:11.932Z,161086.34
2023-05-11T09:25:40.519Z,161105.13
2023-05-11T09:28:15.913Z,161102.41
2023-05-11T09:30:44.754Z,161111.81
2023-05-11T09:33:12.469Z,161138.59
2023-05-11T09:35:43.300Z,161085.00
2023-05-11T09:38:13.071Z,161098.41
2023-05-11T09:41:03.146Z,161145.28
2023-05-11T09:43:31.609Z,161176.16
2023-05-11T09:46:07.768Z,161216.34
2023-05-11T09:48:36.195Z,161206.97
2023-05-11T09:51:05.681Z,161206.97
2023-05-11T09:53:43.541Z,161164.09
2023-05-11T09:56:13.015Z,161189.56
2023-05-11T09:58:47.718Z,161188.19
2023-05-11T10:01:17.350Z,161121.19
2023-05-11T10:04:03.028Z,161102.41
2023-05-11T10:06:54.084Z,161198.94
2023-05-11T10:09:26.372Z,161236.53
2023-05-11T10:11:56.155Z,161193.56
2023-05-11T10:14:26.000Z,161133.28
2023-05-11T10:16:57.749Z,161145.28
2023-05-11T10:19:26.933Z,161172.13
2023-05-11T10:21:56.868Z,161170.78
2023-05-11T10:24:25.799Z,161182.88
2023-05-11T10:26:55.388Z,161141.31
2023-05-11T10:29:24.651Z,161170.78
2023-05-11T10:31:53.703Z,161216.34
2023-05-11T10:34:23.722Z,161216.34
2023-05-11T10:36:53.894Z,161205.66
2023-05-11T10:39:22.614Z,161251.28
2023-05-11T10:42:34.232Z,161215.03
2023-05-11T10:45:12.283Z,161182.88
2023-05-11T10:47:56.524Z,161231.09
2023-05-11T10:51:19.316Z,161266.00
2023-05-11T10:53:50.835Z,161267.41
2023-05-11T10:56:38.126Z,161198.94
2023-05-11T10:59:35.028Z,161205.66
2023-05-11T11:02:04.360Z,161177.50
2023-05-11T11:04:52.469Z,161156.03
2023-05-11T11:07:22.238Z,161102.41
2023-05-11T11:09:51.086Z,161145.28
2023-05-11T11:12:20.311Z,161164.09
2023-05-11T11:15:07.088Z,161198.94
2023-05-11T11:17:36.478Z,161233.81
2023-05-11T11:20:08.254Z,161275.44
2023-05-11T11:22:39.633Z,161303.59
2023-05-11T11:25:09.592Z,161287.47
2023-05-11T11:27:40.477Z,161279.44
2023-05-11T11:30:21.546Z,161200.28
2023-05-11T11:32:54.944Z,161241.91
2023-05-11T11:35:42.726Z,161251.28
2023-05-11T11:38:18.788Z,161312.97
2023-05-11T11:40:54.352Z,161330.38
2023-05-11T11:43:28.909Z,161365.25
2023-05-11T11:45:57.841Z,161401.50
2023-05-11T11:48:36.354Z,161388.09
2023-05-11T11:51:12.554Z,161337.09
2023-05-11T11:53:41.404Z,161308.94
2023-05-11T11:56:28.953Z,161323.72
2023-05-11T11:59:01.535Z,161335.75
2023-05-11T12:01:31.208Z,161319.69
2023-05-11T12:04:05.662Z,161327.72
2023-05-11T12:06:39.104Z,161331.75
2023-05-11T12:09:08.442Z,161341.13
2023-05-11T12:11:36.451Z,161342.47
2023-05-11T12:14:04.541Z,161376.00
2023-05-11T12:16:32.818Z,161381.38
2023-05-11T12:19:02.292Z,161376.00
2023-05-11T12:21:34.149Z,161382.72
2023-05-11T12:24:04.932Z,161386.72
2023-05-11T12:26:34.573Z,161396.13
2023-05-11T12:29:14.226Z,161425.66
2023-05-11T12:31:44.619Z,161437.72
2023-05-11T12:34:17.328Z,161476.59
2023-05-11T12:36:47.470Z,161467.25
2023-05-11T12:39:20.585Z,161420.25
2023-05-11T12:41:50.806Z,161409.56
2023-05-11T12:44:22.532Z,161436.34
2023-05-11T12:46:51.016Z,161447.09
2023-05-11T12:52:08.413Z,161405.50
2023-05-11T12:54:39.089Z,161410.88
2023-05-11T12:57:34.249Z,161448.44
2023-05-11T13:00:15.108Z,161435.00
2023-05-11T13:02:51.578Z,161461.84
2023-05-11T13:05:25.079Z,161441.72
2023-05-11T13:08:00.037Z,161416.28
2023-05-11T13:10:28.428Z,161386.72
2023-05-11T13:12:57.096Z,161402.84
2023-05-11T13:15:27.787Z,161418.94
2023-05-11T13:18:06.079Z,161429.69
2023-05-11T13:20:34.868Z,161453.81
2023-05-11T13:23:07.702Z,161477.94
2023-05-11T13:25:52.116Z,161469.91
2023-05-11T13:28:23.600Z,161502.16
2023-05-11T13:30:59.715Z,161494.13
2023-05-11T13:33:29.363Z,161472.63
2023-05-11T13:35:59.474Z,161418.94
2023-05-11T13:38:29.216Z,161408.19
2023-05-11T13:40:58.958Z,161418.94
2023-05-11T13:43:27.502Z,161432.34
2023-05-11T13:45:57.176Z,161445.78
2023-05-11T13:48:26.991Z,161467.25
2023-05-11T13:50:56.662Z,161491.41
2023-05-11T13:53:25.634Z,161499.47
2023-05-11T13:55:55.842Z,161496.78
2023-05-11T13:58:25.030Z,161495.47
2023-05-11T14:01:07.352Z,161487.41
2023-05-11T14:03:37.323Z,161465.91
2023-05-11T14:06:06.989Z,161428.31
2023-05-11T14:08:36.424Z,161449.78
2023-05-11T14:11:06.007Z,161436.34
2023-05-11T14:13:34.727Z,161414.88
2023-05-11T14:16:02.872Z,161397.47
2023-05-11T14:18:31.410Z,161439.06
2023-05-11T14:20:59.961Z,161464.53
2023-05-11T14:23:28.777Z,161484.66
2023-05-11T14:25:58.443Z,161484.66
2023-05-11T14:28:28.008Z,161452.47
2023-05-11T14:30:57.524Z,161464.53
2023-05-11T14:33:26.261Z,161467.25
2023-05-11T14:35:54.988Z,161494.13
2023-05-11T14:38:23.201Z,161520.91
2023-05-11T14:40:52.535Z,161511.53
2023-05-11T14:43:20.930Z,161510.22
2023-05-11T14:45:49.479Z,161456.47
2023-05-11T14:48:18.220Z,161443.06
2023-05-11T14:50:46.859Z,161437.72
2023-05-11T14:53:14.814Z,161436.34
2023-05-11T14:55:43.921Z,161441.72
2023-05-11T14:58:12.457Z,161429.69
2023-05-11T15:00:40.825Z,161467.25
2023-05-11T15:03:11.374Z,161490.09
2023-05-11T15:05:40.748Z,161491.41
2023-05-11T15:08:18.242Z,161511.53
2023-05-11T15:10:54.242Z,161494.13
2023-05-11T15:13:22.659Z,161495.47
2023-05-11T15:15:51.163Z,161421.59
2023-05-11T15:18:19.248Z,161409.56
2023-05-11T15:20:47.435Z,161416.28
2023-05-11T15:23:17.407Z,161398.81
2023-05-11T15:25:45.903Z,161398.81
2023-05-11T15:28:14.499Z,161392.09
2023-05-11T15:30:43.004Z,161401.50
2023-05-11T15:33:10.822Z,161405.50
2023-05-11T15:35:39.332Z,161404.19
2023-05-11T15:38:07.160Z,161357.22
2023-05-11T15:40:36.489Z,161347.84
2023-05-11T15:43:04.915Z,161373.34
2023-05-11T15:45:33.372Z,161386.72
2023-05-11T15:48:01.112Z,161398.81
2023-05-11T15:50:30.223Z,161390.75
2023-05-11T15:52:58.362Z,161389.44
2023-05-11T15:55:26.837Z,161405.50
2023-05-11T15:57:54.483Z,161365.25
2023-05-11T16:00:22.255Z,161361.25
2023-05-11T16:02:50.132Z,161371.97
2023-05-11T16:05:18.683Z,161376.00
2023-05-11T16:07:46.333Z,161373.34
2023-05-11T16:10:14.439Z,161362.59
2023-05-11T16:12:42.297Z,161361.25
2023-05-11T16:15:10.557Z,161365.25
2023-05-11T16:17:39.138Z,161367.97
2023-05-11T16:20:07.880Z,161362.59
2023-05-11T16:22:37.480Z,161342.47
2023-05-11T16:25:07.201Z,161349.19
2023-05-11T16:27:35.862Z,161339.81
2023-05-11T16:30:17.919Z,161298.22
2023-05-11T16:32:51.089Z,161296.88
2023-05-11T16:35:19.108Z,161303.59
2023-05-11T16:37:48.386Z,161283.47
2023-05-11T16:40:21.739Z,161292.84
2023-05-11T16:42:50.390Z,161300.88
2023-05-11T16:45:18.995Z,161282.16
2023-05-11T16:47:47.034Z,161267.41
2023-05-11T16:50:16.769Z,161264.69
2023-05-11T16:52:45.357Z,161263.34
2023-05-11T16:55:13.553Z,161267.41
2023-05-11T16:57:41.685Z,161252.66
2023-05-11T17:00:10.536Z,161247.28
2023-05-11T17:02:38.502Z,161224.44
2023-05-11T17:05:10.957Z,161227.09
2023-05-11T17:07:39.299Z,161202.94
2023-05-11T17:10:08.194Z,161169.47
2023-05-11T17:12:36.116Z,161164.09
2023-05-11T17:15:09.652Z,161162.75
2023-05-11T17:17:38.309Z,161150.66
2023-05-11T17:20:08.604Z,161164.09
2023-05-11T17:22:36.287Z,161142.63
2023-05-11T17:25:06.043Z,161133.28
2023-05-11T17:27:36.748Z,161148.00
2023-05-11T17:30:06.379Z,161111.81
2023-05-11T17:32:35.279Z,161102.41
2023-05-11T17:35:04.608Z,161085.00
2023-05-11T17:37:32.764Z,161072.94
2023-05-11T17:40:02.030Z,161067.56
2023-05-11T17:42:30.205Z,161035.41
2023-05-11T17:44:58.396Z,161028.72
2023-05-11T17:47:27.242Z,161011.25
2023-05-11T17:49:55.991Z,160996.53
2023-05-11T17:52:27.469Z,160976.41
2023-05-11T17:54:57.047Z,160976.41
2023-05-11T17:57:25.774Z,160958.97
2023-05-11T17:59:54.297Z,160934.88
2023-05-11T18:02:23.019Z,160925.44
2023-05-11T18:04:54.104Z,160897.31
2023-05-11T18:07:22.741Z,160865.19
2023-05-11T18:09:51.194Z,160850.44
2023-05-11T18:12:19.065Z,160830.34
2023-05-11T18:14:47.553Z,160803.56
2023-05-11T18:17:15.373Z,160748.63
2023-05-11T18:19:46.152Z,160703.13
2023-05-11T18:22:14.635Z,160661.53
2023-05-11T18:24:43.274Z,160612.00
2023-05-11T18:27:11.916Z,160571.81
2023-05-11T18:29:41.940Z,160520.97
2023-05-11T18:32:10.235Z,160486.16
2023-05-11T18:34:41.564Z,160433.97
2023-05-11T18:37:09.914Z,160391.16
2023-05-11T18:39:39.306Z,160342.94
2023-05-11T18:42:07.343Z,160310.78
2023-05-11T18:44:36.411Z,160290.72
2023-05-11T18:47:04.441Z,160264.00
2023-05-11T18:49:33.002Z,160231.88
2023-05-11T18:52:01.337Z,160207.81
2023-05-11T18:54:29.650Z,160177.03
2023-05-11T18:56:59.273Z,160151.66
2023-05-11T18:59:28.686Z,160135.56
2023-05-11T19:01:56.769Z,160114.16
2023-05-11T19:04:25.212Z,160088.78
2023-05-11T19:06:56.205Z,160084.75
2023-05-11T19:09:25.356Z,160060.72
2023-05-11T19:11:53.152Z,160019.22
2023-05-11T19:14:21.672Z,160012.53
2023-05-11T19:16:50.069Z,159996.50
2023-05-11T19:19:18.947Z,159979.09
2023-05-11T19:21:48.994Z,159932.34
2023-05-11T19:24:17.708Z,159909.56
2023-05-11T19:26:52.397Z,159908.25
2023-05-11T19:29:31.748Z,159885.53
2023-05-11T19:32:00.751Z,159878.84
2023-05-11T19:34:30.280Z,159857.47
2023-05-11T19:37:06.835Z,159829.41
2023-05-11T19:39:36.412Z,159801.34
2023-05-11T19:42:04.447Z,159779.97
2023-05-11T19:44:33.645Z,159771.94
2023-05-11T19:47:01.651Z,159755.94
2023-05-11T19:49:30.193Z,159729.22
2023-05-11T19:51:58.247Z,159706.50
2023-05-11T19:54:26.965Z,159697.13
2023-05-11T19:56:56.745Z,159679.72
2023-05-11T19:59:27.877Z,159667.69
2023-05-11T20:01:57.515Z,159654.34
2023-05-11T20:04:28.547Z,159637.00
2023-05-11T20:06:57.890Z,159628.97
2023-05-11T20:09:26.470Z,159606.25
2023-05-11T20:11:54.135Z,159600.94
2023-05-11T20:14:22.290Z,159596.91
2023-05-11T20:16:50.535Z,159588.91
2023-05-11T20:19:18.887Z,159578.19
2023-05-11T20:21:47.161Z,159571.56
2023-05-11T20:24:15.868Z,159584.88
2023-05-11T20:26:43.842Z,159580.91
2023-05-11T20:29:12.298Z,159582.22
2023-05-11T20:31:40.164Z,159583.56
2023-05-11T20:34:09.350Z,159590.22
2023-05-11T20:36:37.262Z,159591.56
2023-05-11T20:39:09.674Z,159598.22
2023-05-11T20:41:38.095Z,159596.91
2023-05-11T20:44:06.356Z,159584.88
2023-05-11T20:46:34.279Z,159599.63
2023-05-11T20:49:02.514Z,159588.91
2023-05-11T20:51:30.318Z,159578.19
2023-05-11T20:53:58.737Z,159562.19
2023-05-11T20:56:27.237Z,159555.50
2023-05-11T20:58:55.441Z,159546.19
2023-05-11T21:01:23.411Z,159535.47
2023-05-11T21:03:52.067Z,159504.78
2023-05-11T21:06:20.212Z,159474.09
2023-05-11T21:08:48.389Z,159436.66
2023-05-11T21:11:16.608Z,159404.66
2023-05-11T21:13:45.729Z,159384.63
2023-05-11T21:16:13.618Z,159356.59
2023-05-11T21:18:43.999Z,159345.94
2023-05-11T21:21:12.420Z,159332.59
2023-05-11T21:23:41.183Z,159305.91
2023-05-11T21:26:09.230Z,159289.91
2023-05-11T21:28:39.751Z,159293.88
2023-05-11T21:31:08.295Z,159285.88
2023-05-11T21:33:36.778Z,159257.81
2023-05-11T21:36:05.910Z,159248.47
2023-05-11T21:38:35.428Z,159232.44
2023-05-11T21:41:03.993Z,159205.78
2023-05-11T21:43:33.558Z,159187.09
2023-05-11T21:46:02.316Z,159157.75
2023-05-11T21:48:30.923Z,159121.75
2023-05-11T21:50:58.740Z,159079.06
2023-05-11T21:53:27.602Z,159056.34
2023-05-11T21:55:55.980Z,159043.06
2023-05-11T21:58:24.588Z,159016.38
2023-05-11T22:00:52.662Z,158983.03
2023-05-11T22:03:21.062Z,158971.03
2023-05-11T22:05:48.969Z,158935.03
2023-05-11T22:08:17.654Z,158905.72
2023-05-11T22:10:45.672Z,158885.72
2023-05-11T22:13:14.030Z,158876.41
2023-05-11T22:15:42.473Z,158856.41
2023-05-11T22:18:11.071Z,158825.75
2023-05-11T22:20:39.314Z,158817.75
2023-05-11T22:23:07.705Z,158795.06
2023-05-11T22:25:35.596Z,158757.72
2023-05-11T22:28:05.349Z,158728.41
2023-05-11T22:30:33.624Z,158711.06
2023-05-11T22:33:01.852Z,158695.09
2023-05-11T22:35:30.603Z,158677.81
2023-05-11T22:38:02.033Z,158661.78
2023-05-11T22:40:29.773Z,158645.81
2023-05-11T22:42:58.422Z,158627.13
2023-05-11T22:45:26.168Z,158613.84
2023-05-11T22:47:54.821Z,158631.16
2023-05-11T22:50:23.004Z,158617.81
2023-05-11T22:52:51.205Z,158608.53
2023-05-11T22:55:20.456Z,158591.19
2023-05-11T22:57:49.741Z,158569.88
2023-05-11T23:00:18.312Z,158576.53
2023-05-11T23:02:46.897Z,158575.22
2023-05-11T23:05:14.930Z,158549.88
2023-05-11T23:07:43.280Z,158545.91
2023-05-11T23:10:11.810Z,158521.91
2023-05-11T23:12:40.552Z,158492.63
2023-05-11T23:15:10.164Z,158467.38
2023-05-11T23:17:38.348Z,158456.69
2023-05-11T23:20:06.843Z,158454.03
2023-05-11T23:22:35.183Z,158446.06
2023-05-11T23:25:03.826Z,158412.75
2023-05-11T23:27:31.833Z,158423.38
2023-05-11T23:30:00.156Z,158411.44
2023-05-11T23:32:28.222Z,158408.75
2023-05-11T23:34:56.439Z,158402.09
2023-05-11T23:37:25.151Z,158387.44
2023-05-11T23:39:53.022Z,158358.19
2023-05-11T23:42:21.749Z,158347.56
2023-05-11T23:44:49.502Z,158352.84
2023-05-11T23:47:18.056Z,158338.19
2023-05-11T23:49:46.625Z,158330.22
2023-05-11T23:52:14.943Z,158300.94
2023-05-11T23:54:42.612Z,158291.66
2023-05-11T23:57:10.838Z,158286.31
2023-05-11T23:59:38.687Z,158283.69
